Allendale, Illinois
Current Conditions -  °F | °C
As of 12:15 AM on Monday 22 Dec 2014 (Local Time) from KAJG Reporting Station
Overcast Overcast  
Wind Chill: 26°   Ceiling: 11000
Heat Index: 32°   Visibility: 7mi
Dew Point: 30°   Wind: 7mph
Humidity: 93%   Direction: 90°E
Pressure: 30"   Gusts: NA
Location:  38.53°N, 87.71°W
Report Text: KAJG 220615Z AUTO 09006KT 7SM SCT085 OVC110 00/M01 A3000 RMK AO2
Loading
Personal Weather Stations






























Interactive Weather Map New forecast layout! Learn more

10-Day Weather Forecast

Advertisements
Track Severe Weather on mobile